Time;durP1;ratioP1;P1;durP2;ratioP2;P2;SDS_P1;SDS_P2;PMS_P1;PMS_P2;Temp;Humidity;BMP_temperature;BMP_pressure;BME280_temperature;BME280_humidity;BME280_pressure;Samples;Min_cycle;Max_cycle;Signal;HPM_P1;HPM_P2
2023/12/25 00:02:09;;;;;;;2.95;1.67;;;;;;;10.48;73.34;98197.50;5105462;28;20063;-70
2023/12/25 00:04:36;;;;;;;2.40;1.50;;;;;;;10.46;73.29;98184.38;5105465;28;20191;-70
2023/12/25 00:07:02;;;;;;;2.25;1.58;;;;;;;10.51;73.20;98206.09;5105490;28;20054;-69
2023/12/25 00:09:29;;;;;;;2.58;1.75;;;;;;;10.51;72.92;98198.13;5105365;28;20056;-70
2023/12/25 00:11:56;;;;;;;2.13;1.40;;;;;;;10.53;73.06;98203.31;5105681;28;20288;-70
2023/12/25 00:14:24;;;;;;;2.90;1.48;;;;;;;10.41;72.80;98172.44;5105607;28;20109;-70
2023/12/25 00:16:50;;;;;;;2.13;1.40;;;;;;;10.57;72.77;98203.00;5105565;28;20055;-71
2023/12/25 00:19:17;;;;;;;3.42;1.40;;;;;;;10.58;72.71;98201.19;5109359;28;20039;-70
2023/12/25 00:21:44;;;;;;;2.88;1.52;;;;;;;10.58;72.72;98198.53;5108986;28;20044;-70
2023/12/25 00:24:10;;;;;;;1.90;1.38;;;;;;;10.54;72.73;98210.31;5108940;28;20040;-70
2023/12/25 00:26:40;;;;;;;1.55;1.30;;;;;;;10.59;72.49;98187.81;5108906;28;20097;-71
2023/12/25 00:29:06;;;;;;;3.33;1.52;;;;;;;10.62;72.45;98201.81;5109136;28;20055;-70
2023/12/25 00:31:34;;;;;;;2.28;1.30;;;;;;;10.62;72.45;98199.16;5108880;28;20052;-71
2023/12/25 00:34:02;;;;;;;2.50;1.50;;;;;;;10.59;72.41;98163.13;5108440;28;20353;-70
2023/12/25 00:36:28;;;;;;;1.88;1.20;;;;;;;10.58;72.60;98180.84;5108674;28;20055;-71
2023/12/25 00:38:55;;;;;;;2.50;1.42;;;;;;;10.58;72.60;98182.63;5108422;28;20074;-70
2023/12/25 00:41:23;;;;;;;3.42;1.70;;;;;;;10.58;72.57;98172.88;5108356;28;20093;-70
2023/12/25 00:43:49;;;;;;;2.40;1.58;;;;;;;10.57;72.59;98180.94;5108658;28;20078;-70
2023/12/25 00:46:17;;;;;;;3.08;1.50;;;;;;;10.55;72.58;98201.41;5108494;28;20052;-69
2023/12/25 00:48:45;;;;;;;3.20;1.42;;;;;;;10.56;72.56;98205.75;5108512;28;20275;-69
2023/12/25 00:51:12;;;;;;;1.85;1.25;;;;;;;10.57;72.46;98210.09;5108472;28;20204;-69
2023/12/25 00:53:39;;;;;;;4.63;1.85;;;;;;;10.59;72.35;98214.31;5108348;28;20055;-70
2023/12/25 00:56:06;;;;;;;1.95;1.40;;;;;;;10.60;72.28;98208.06;5108377;28;20044;-70
2023/12/25 00:58:33;;;;;;;3.42;1.30;;;;;;;10.63;72.17;98211.44;5108312;28;20070;-70
2023/12/25 01:00:59;;;;;;;3.05;1.50;;;;;;;10.62;72.14;98207.09;5108323;28;20051;-70
2023/12/25 01:03:26;;;;;;;2.80;1.42;;;;;;;10.64;72.02;98210.47;5107990;28;20036;-70
2023/12/25 01:05:54;;;;;;;2.72;1.48;;;;;;;10.64;72.11;98227.22;5107862;28;20323;-71
2023/12/25 01:08:20;;;;;;;2.80;1.42;;;;;;;10.69;71.80;98221.59;5108084;28;20077;-70
2023/12/25 01:10:47;;;;;;;2.35;1.40;;;;;;;10.49;71.80;98204.50;5107672;28;20064;-70
2023/12/25 01:13:14;;;;;;;1.98;1.52;;;;;;;10.68;71.57;98246.41;5107973;28;20090;-70
2023/12/25 01:15:41;;;;;;;2.35;1.60;;;;;;;10.59;71.51;98186.97;5108245;28;20052;-70
2023/12/25 01:18:07;;;;;;;1.90;1.20;;;;;;;10.57;71.21;98207.44;5107949;28;20044;-70
2023/12/25 01:20:34;;;;;;;2.17;1.23;;;;;;;10.74;71.07;98208.84;5107910;28;20044;-70
2023/12/25 01:23:02;;;;;;;2.83;1.50;;;;;;;10.73;71.05;98231.00;5107802;28;20048;-70
2023/12/25 01:25:29;;;;;;;2.85;1.50;;;;;;;10.77;71.01;98220.09;5108024;28;20044;-70
2023/12/25 01:27:55;;;;;;;3.42;2.00;;;;;;;10.80;70.77;98234.94;5107417;28;20200;-71
2023/12/25 01:30:22;;;;;;;3.45;1.50;;;;;;;10.81;70.83;98250.72;5107659;28;20051;-70
2023/12/25 01:32:48;;;;;;;3.33;1.40;;;;;;;10.13;70.56;98107.41;5107656;28;20044;-70
2023/12/25 01:35:15;;;;;;;3.10;1.60;;;;;;;10.85;70.32;98222.19;5107553;28;20048;-70
2023/12/25 01:37:42;;;;;;;3.08;1.40;;;;;;;10.67;70.35;98189.06;5106424;28;20044;-71
2023/12/25 01:40:11;;;;;;;2.80;1.33;;;;;;;10.74;70.36;98185.00;5106344;28;20039;-70
2023/12/25 01:42:42;;;;;;;2.50;1.55;;;;;;;10.86;70.06;98222.06;5107441;28;20054;-70
2023/12/25 01:45:10;;;;;;;3.13;1.95;;;;;;;10.85;70.31;98217.72;5107378;28;20182;-70
2023/12/25 01:47:37;;;;;;;3.03;1.77;;;;;;;10.55;70.21;98153.72;5107126;28;20040;-69
2023/12/25 01:50:06;;;;;;;2.55;1.30;;;;;;;10.88;69.96;98206.91;5107041;28;20040;-70
2023/12/25 01:52:33;;;;;;;1.90;1.30;;;;;;;9.78;69.71;98036.72;5107115;28;20097;-70
2023/12/25 01:55:01;;;;;;;2.83;1.30;;;;;;;10.80;69.33;98188.06;5107084;28;20296;-70
2023/12/25 01:57:31;;;;;;;2.10;1.60;;;;;;;10.94;69.44;98228.59;5107482;28;20078;-70
2023/12/25 01:59:58;;;;;;;2.63;1.40;;;;;;;10.91;69.62;98206.66;5107492;28;20040;-69
2023/12/25 02:02:24;;;;;;;2.38;1.60;;;;;;;10.99;68.79;98213.22;5107147;28;20158;-70
2023/12/25 02:04:51;;;;;;;2.25;1.40;;;;;;;11.01;68.54;98206.81;5107041;28;20036;-70
2023/12/25 02:07:18;;;;;;;2.70;1.50;;;;;;;11.07;68.47;98232.03;5106746;28;20051;-70
2023/12/25 02:09:48;;;;;;;3.60;1.30;;;;;;;11.03;68.57;98231.41;5106814;28;20320;-70
2023/12/25 02:12:15;;;;;;;2.45;1.40;;;;;;;11.05;68.54;98218.91;5106620;28;20053;-70
2023/12/25 02:14:43;;;;;;;2.45;1.30;;;;;;;11.07;68.22;98224.94;5106560;28;20040;-70
2023/12/25 02:17:12;;;;;;;2.58;1.58;;;;;;;11.10;68.09;98232.66;5105864;28;20036;-69
2023/12/25 02:19:40;;;;;;;3.58;1.40;;;;;;;11.12;67.69;98222.78;5106502;28;20044;-71
2023/12/25 02:22:07;;;;;;;2.58;1.48;;;;;;;11.15;67.56;98243.75;5107272;28;20239;-69
2023/12/25 02:24:37;;;;;;;3.10;1.40;;;;;;;11.14;67.59;98247.38;5107031;28;20074;-70
2023/12/25 02:27:06;;;;;;;2.65;1.40;;;;;;;11.17;67.35;98236.53;5106689;28;20044;-69
2023/12/25 02:29:33;;;;;;;2.13;1.45;;;;;;;11.18;67.23;98242.69;5106595;28;20048;-69
2023/12/25 02:32:00;;;;;;;2.70;1.35;;;;;;;11.18;67.79;98250.63;5106580;28;20196;-70
2023/12/25 02:34:26;;;;;;;2.53;1.38;;;;;;;11.19;67.26;98250.53;5106434;28;20036;-70
2023/12/25 02:36:53;;;;;;;2.45;1.58;;;;;;;11.21;67.05;98250.41;5106484;28;20062;-69
2023/12/25 02:39:20;;;;;;;1.63;1.20;;;;;;;11.22;66.96;98254.75;5106228;28;20039;-70
2023/12/25 02:41:47;;;;;;;3.15;1.40;;;;;;;11.23;66.95;98243.19;5105075;28;20051;-70
2023/12/25 02:44:16;;;;;;;2.03;1.38;;;;;;;11.23;66.89;98257.28;5106376;28;20048;-69
2023/12/25 02:46:42;;;;;;;2.22;1.30;;;;;;;11.24;66.39;98232.47;5106599;28;20068;-69
2023/12/25 02:49:09;;;;;;;2.45;1.45;;;;;;;11.06;66.21;98222.38;5106032;28;20036;-69
2023/12/25 02:51:36;;;;;;;2.00;1.50;;;;;;;11.23;66.27;98240.53;5106246;28;20062;-69
2023/12/25 02:54:02;;;;;;;1.45;1.08;;;;;;;11.25;66.04;98283.69;5105839;28;20305;-69
2023/12/25 02:56:29;;;;;;;1.67;1.20;;;;;;;11.06;65.83;98209.97;5106183;28;20097;-69
2023/12/25 02:58:56;;;;;;;2.13;1.20;;;;;;;11.24;65.66;98251.03;5105884;28;20117;-69
2023/12/25 03:01:24;;;;;;;2.70;1.30;;;;;;;11.23;65.49;98246.69;5106108;28;20089;-69
2023/12/25 03:03:51;;;;;;;1.60;1.10;;;;;;;11.30;65.22;98248.88;5105793;28;20085;-70
2023/12/25 03:06:17;;;;;;;1.73;1.17;;;;;;;11.28;65.07;98234.88;5105807;28;20044;-69
2023/12/25 03:08:44;;;;;;;2.03;1.17;;;;;;;11.26;64.79;98250.91;5105841;28;20296;-70
2023/12/25 03:11:10;;;;;;;2.03;1.33;;;;;;;11.27;64.19;98263.22;5106011;28;20044;-70
2023/12/25 03:13:37;;;;;;;2.28;1.40;;;;;;;11.34;63.73;98218.50;5105930;28;20055;-70
2023/12/25 03:16:05;;;;;;;1.75;1.10;;;;;;;11.32;63.91;98239.00;5105677;28;20173;-70
2023/12/25 03:18:33;;;;;;;1.50;1.10;;;;;;;11.31;63.97;98229.34;5105941;28;20170;-70
2023/12/25 03:21:00;;;;;;;2.17;1.30;;;;;;;11.36;62.64;98225.38;5106192;28;20293;-69
2023/12/25 03:23:27;;;;;;;4.15;1.30;;;;;;;11.37;63.18;98244.78;5106435;28;20222;-70
2023/12/25 03:25:54;;;;;;;1.50;1.15;;;;;;;11.34;62.71;98248.53;5106136;28;20300;-70
2023/12/25 03:28:21;;;;;;;2.00;1.25;;;;;;;11.35;62.89;98276.75;5105533;28;20047;-70
2023/12/25 03:30:47;;;;;;;2.90;1.20;;;;;;;11.39;62.51;98250.81;5105500;28;20036;-70
2023/12/25 03:33:14;;;;;;;1.90;1.40;;;;;;;11.38;62.22;98252.63;5105803;28;20044;-70
2023/12/25 03:35:42;;;;;;;1.55;1.17;;;;;;;11.31;61.99;98253.22;5105430;28;20044;-70
2023/12/25 03:38:08;;;;;;;1.85;1.40;;;;;;;11.38;61.84;98265.91;5105766;28;20055;-70
2023/12/25 03:40:35;;;;;;;2.95;1.30;;;;;;;11.43;62.02;98287.63;5105473;28;20074;-70
2023/12/25 03:43:01;;;;;;;2.47;1.20;;;;;;;11.39;61.28;98251.66;5105418;28;20335;-70
2023/12/25 03:45:27;;;;;;;1.80;1.35;;;;;;;11.37;61.71;98258.91;5105694;28;20040;-70
2023/12/25 03:47:54;;;;;;;2.67;1.20;;;;;;;11.42;61.38;98262.06;5106000;28;20048;-69
2023/12/25 03:50:21;;;;;;;1.75;1.30;;;;;;;11.43;61.09;98284.97;5105687;28;20043;-70
2023/12/25 03:52:49;;;;;;;5.80;1.30;;;;;;;11.39;60.71;98278.19;5107628;28;20044;-70
2023/12/25 03:55:15;;;;;;;2.38;1.20;;;;;;;11.41;60.81;98275.44;5109778;28;20036;-70
2023/12/25 03:57:42;;;;;;;1.67;1.17;;;;;;;11.47;59.84;98283.78;5109807;28;20055;-70
2023/12/25 04:00:10;;;;;;;1.75;1.23;;;;;;;11.52;59.74;98278.13;5109719;28;20349;-69
2023/12/25 04:02:36;;;;;;;1.95;1.17;;;;;;;11.46;59.78;98271.47;5109680;28;20044;-70
2023/12/25 04:05:03;;;;;;;2.03;1.20;;;;;;;11.48;59.82;98279.31;5109368;28;20046;-70
2023/12/25 04:07:30;;;;;;;2.13;1.35;;;;;;;11.34;59.97;98245.88;5109339;28;20246;-70
2023/12/25 04:09:58;;;;;;;1.80;1.20;;;;;;;11.54;59.00;98287.66;5108825;28;20052;-70
2023/12/25 04:12:24;;;;;;;1.80;1.30;;;;;;;11.51;59.27;98281.72;5109499;28;20055;-69
2023/12/25 04:14:51;;;;;;;1.25;1.10;;;;;;;11.52;59.04;98280.78;5108862;28;20089;-70
2023/12/25 04:17:18;;;;;;;1.83;1.35;;;;;;;11.50;59.17;98274.72;5108860;28;20044;-70
2023/12/25 04:19:44;;;;;;;1.73;1.23;;;;;;;11.50;58.82;98312.72;5108989;28;20307;-70
2023/12/25 04:22:13;;;;;;;1.70;1.20;;;;;;;11.33;58.59;98249.47;5108802;28;20044;-70
2023/12/25 04:24:40;;;;;;;2.67;1.30;;;;;;;11.51;58.66;98297.66;5107852;28;20043;-70
2023/12/25 04:27:07;;;;;;;2.80;1.40;;;;;;;11.52;58.64;98264.84;5109254;28;20110;-70
2023/12/25 04:29:34;;;;;;;2.15;1.20;;;;;;;11.37;58.46;98261.56;5109172;28;20101;-70
2023/12/25 04:32:01;;;;;;;1.42;1.17;;;;;;;11.57;58.31;98287.41;5109189;28;20039;-70
2023/12/25 04:34:28;;;;;;;2.40;1.23;;;;;;;11.54;58.76;98281.50;5108773;28;20289;-70
2023/12/25 04:36:54;;;;;;;2.25;1.25;;;;;;;11.61;58.38;98295.16;5108746;28;20192;-70
2023/12/25 04:39:21;;;;;;;1.33;1.08;;;;;;;11.61;58.26;98274.75;5108674;28;20044;-70
2023/12/25 04:41:48;;;;;;;1.90;1.30;;;;;;;11.58;58.64;98304.19;5108964;28;20101;-70
2023/12/25 04:44:16;;;;;;;1.90;1.30;;;;;;;11.59;58.61;98299.72;5108605;28;20044;-70
2023/12/25 04:46:42;;;;;;;2.00;1.15;;;;;;;11.60;58.61;98310.22;5108251;28;20323;-70
2023/12/25 04:49:09;;;;;;;2.30;1.10;;;;;;;11.59;58.39;98313.00;5108380;28;20077;-69
2023/12/25 04:51:36;;;;;;;1.63;1.15;;;;;;;11.57;58.70;98329.88;5108480;28;20044;-70
2023/12/25 04:54:02;;;;;;;2.60;1.20;;;;;;;11.57;58.87;98323.72;5108442;28;20044;-70
2023/12/25 04:56:29;;;;;;;2.13;1.20;;;;;;;11.61;59.00;98333.16;5108643;28;20367;-70
2023/12/25 04:58:55;;;;;;;1.95;1.15;;;;;;;11.63;58.90;98314.44;5108363;28;20047;-70
2023/12/25 05:01:24;;;;;;;1.85;1.15;;;;;;;11.36;59.04;98297.00;5108354;28;20043;-70
2023/12/25 05:03:50;;;;;;;1.48;1.13;;;;;;;11.59;59.13;98343.03;5108270;28;20093;-70
2023/12/25 05:06:16;;;;;;;2.20;1.30;;;;;;;11.56;59.38;98357.38;5109389;28;20036;-70
2023/12/25 05:08:42;;;;;;;1.88;1.15;;;;;;;11.55;59.18;98368.09;5107850;28;20354;-70
2023/12/25 05:11:09;;;;;;;2.50;1.40;;;;;;;11.60;59.45;98394.28;5088139;28;20066;-70
2023/12/25 05:13:36;;;;;;;1.65;1.10;;;;;;;11.04;59.20;98266.72;5087847;28;20343;-71
2023/12/25 05:16:03;;;;;;;1.70;1.10;;;;;;;10.95;59.20;98272.72;5087439;28;20045;-71
2023/12/25 05:18:31;;;;;;;1.90;1.10;;;;;;;11.56;59.21;98370.66;5086595;28;20123;-70
2023/12/25 05:20:59;;;;;;;1.73;1.20;;;;;;;11.56;59.26;98380.41;5087669;28;20044;-71
2023/12/25 05:23:25;;;;;;;1.90;1.52;;;;;;;11.57;58.86;98364.38;5087562;28;20056;-70
2023/12/25 05:25:52;;;;;;;1.85;1.10;;;;;;;11.55;59.13;98361.00;5086495;28;20040;-69
2023/12/25 05:28:19;;;;;;;2.17;1.20;;;;;;;11.54;59.33;98350.50;5087488;28;20044;-70
2023/12/25 05:30:46;;;;;;;2.78;1.20;;;;;;;11.50;59.26;98381.72;5087145;28;20320;-70
2023/12/25 05:33:13;;;;;;;2.92;1.33;;;;;;;11.49;59.34;98403.91;5087234;28;20177;-70
2023/12/25 05:35:41;;;;;;;2.83;1.30;;;;;;;11.50;59.26;98373.75;5087248;28;20289;-70
2023/12/25 05:38:07;;;;;;;1.55;1.10;;;;;;;11.50;59.65;98357.84;5087538;28;20040;-70
2023/12/25 05:40:34;;;;;;;1.88;1.38;;;;;;;11.49;59.15;98374.72;5087315;28;20048;-70
2023/12/25 05:43:01;;;;;;;1.70;1.15;;;;;;;11.50;58.64;98396.78;5087167;28;20055;-70
2023/12/25 05:45:27;;;;;;;1.70;1.10;;;;;;;11.50;58.72;98371.09;5087400;28;20047;-70
2023/12/25 05:47:54;;;;;;;2.90;1.20;;;;;;;11.50;58.51;98359.63;5086316;28;20066;-69
2023/12/25 05:50:21;;;;;;;1.77;1.20;;;;;;;11.47;58.48;98373.13;5086767;28;20050;-70
2023/12/25 05:52:49;;;;;;;1.50;1.13;;;;;;;11.48;58.19;98382.78;5086983;28;20044;-70
2023/12/25 05:55:16;;;;;;;1.67;1.10;;;;;;;11.42;57.75;98389.41;5086893;28;20044;-70
2023/12/25 05:57:42;;;;;;;1.60;1.10;;;;;;;11.40;57.73;98354.16;5086642;28;20044;-70
2023/12/25 06:00:10;;;;;;;2.30;1.13;;;;;;;11.42;57.49;98446.91;5086539;28;20293;-70
2023/12/25 06:02:36;;;;;;;2.00;1.48;;;;;;;11.40;57.27;98367.44;5086768;28;20052;-69
2023/12/25 06:05:03;;;;;;;1.90;1.10;;;;;;;10.46;57.00;98220.63;5086717;28;20040;-70
2023/12/25 06:07:30;;;;;;;3.05;1.10;;;;;;;11.19;56.99;98327.44;5086423;28;20090;-70
2023/12/25 06:09:58;;;;;;;1.17;1.00;;;;;;;11.22;57.19;98336.97;5096793;28;20059;-70
2023/12/25 06:12:24;;;;;;;2.15;1.10;;;;;;;11.37;57.18;98354.41;5106633;28;20192;-69
2023/12/25 06:14:51;;;;;;;1.83;1.20;;;;;;;11.34;56.89;98370.53;5106121;28;20067;-69
2023/12/25 06:17:18;;;;;;;1.63;1.20;;;;;;;11.32;56.80;98371.63;5106856;28;20357;-69
2023/12/25 06:19:44;;;;;;;2.15;1.20;;;;;;;11.29;56.55;98369.19;5106811;28;20040;-70
2023/12/25 06:22:11;;;;;;;1.60;1.17;;;;;;;10.51;56.84;98231.72;5106769;28;20101;-70
2023/12/25 06:24:38;;;;;;;1.77;1.10;;;;;;;11.32;56.91;98355.69;5106723;28;20119;-69
2023/12/25 06:27:06;;;;;;;2.55;1.20;;;;;;;11.15;57.11;98327.78;5106680;28;20055;-69
2023/12/25 06:29:33;;;;;;;1.80;1.20;;;;;;;11.24;56.74;98351.81;5106647;28;20043;-69
2023/12/25 06:31:59;;;;;;;1.98;1.20;;;;;;;11.24;56.95;98358.91;5106548;28;20052;-69
2023/12/25 06:34:26;;;;;;;2.58;1.30;;;;;;;11.20;57.09;98368.91;5106820;28;20185;-69
2023/12/25 06:36:52;;;;;;;2.10;1.20;;;;;;;11.19;56.84;98359.25;5106953;28;20100;-69
2023/12/25 06:39:19;;;;;;;2.00;1.10;;;;;;;11.26;56.62;98386.19;5106404;28;20051;-69
2023/12/25 06:41:46;;;;;;;2.95;1.33;;;;;;;11.24;56.26;98364.22;5106680;28;20234;-69
2023/12/25 06:44:14;;;;;;;1.98;1.30;;;;;;;11.19;55.81;98372.50;5106605;28;20048;-69
2023/12/25 06:46:40;;;;;;;1.85;1.23;;;;;;;11.20;56.19;98346.84;5106605;28;20048;-69
2023/12/25 06:49:07;;;;;;;2.97;1.33;;;;;;;11.23;55.71;98347.47;5106040;28;20292;-69
2023/12/25 06:51:34;;;;;;;1.70;1.20;;;;;;;11.23;55.93;98389.91;5106199;28;20044;-68
2023/12/25 06:54:01;;;;;;;1.77;1.30;;;;;;;11.23;55.89;98376.63;5106198;28;20089;-69
2023/12/25 06:56:27;;;;;;;1.60;1.10;;;;;;;11.21;55.96;98362.63;5106398;28;20342;-69
2023/12/25 06:58:54;;;;;;;1.75;1.30;;;;;;;11.19;56.14;98372.50;5105920;28;20254;-69
2023/12/25 07:01:25;;;;;;;1.73;1.25;;;;;;;11.18;56.22;98383.22;5106094;28;20077;-70
2023/12/25 07:03:51;;;;;;;1.50;1.20;;;;;;;11.21;56.05;98370.59;5106096;28;20044;-69
2023/12/25 07:06:18;;;;;;;2.80;1.20;;;;;;;11.16;55.57;98355.97;5106088;28;20246;-69
2023/12/25 07:08:45;;;;;;;2.42;1.50;;;;;;;11.20;55.94;98389.28;5106018;28;20051;-69
2023/12/25 07:11:13;;;;;;;3.17;1.23;;;;;;;11.19;55.62;98375.16;5105979;28;20070;-70
2023/12/25 07:13:39;;;;;;;2.55;1.30;;;;;;;11.18;55.51;98364.69;5106201;28;20043;-69
2023/12/25 07:16:07;;;;;;;1.70;1.20;;;;;;;11.20;55.36;98360.09;5105483;28;20316;-70
2023/12/25 07:18:35;;;;;;;2.08;1.50;;;;;;;11.18;55.45;98376.13;5105873;28;20047;-70
2023/12/25 07:21:02;;;;;;;2.58;1.20;;;;;;;11.21;55.58;98364.44;5105887;28;20067;-70
2023/12/25 07:23:28;;;;;;;1.90;1.20;;;;;;;11.17;54.99;98379.75;5106205;28;20093;-69
2023/12/25 07:25:55;;;;;;;1.95;1.20;;;;;;;11.19;54.71;98361.91;5107000;28;20036;-70
2023/12/25 07:28:22;;;;;;;2.85;1.40;;;;;;;11.17;54.36;98394.81;5110379;28;20217;-69
2023/12/25 07:30:49;;;;;;;2.60;1.50;;;;;;;11.18;54.32;98405.31;5110073;28;20120;-70
2023/12/25 07:33:15;;;;;;;1.73;1.10;;;;;;;11.19;54.19;98407.00;5108886;28;20047;-70
2023/12/25 07:35:43;;;;;;;9.00;1.60;;;;;;;11.20;54.46;98399.88;5110139;28;20169;-70
2023/12/25 07:38:10;;;;;;;1.83;1.30;;;;;;;11.21;54.17;98410.38;5109447;28;20074;-70
2023/12/25 07:40:36;;;;;;;2.55;1.52;;;;;;;11.20;54.11;98447.63;5109498;28;20093;-70
2023/12/25 07:43:05;;;;;;;2.08;1.30;;;;;;;11.23;53.98;98404.97;5108722;28;20054;-69
2023/12/25 07:45:31;;;;;;;2.40;1.20;;;;;;;11.07;54.05;98388.47;5110055;28;20101;-69
2023/12/25 07:47:58;;;;;;;1.88;1.20;;;;;;;11.23;53.50;98426.19;5109999;28;20051;-69
2023/12/25 07:50:25;;;;;;;1.70;1.20;;;;;;;11.29;54.17;98395.72;5109445;28;20292;-70
2023/12/25 07:52:53;;;;;;;2.42;1.40;;;;;;;11.29;54.07;98414.28;5109639;28;20051;-69
2023/12/25 07:55:20;;;;;;;2.17;1.30;;;;;;;11.28;53.56;98386.06;5109525;28;20044;-69
2023/12/25 07:57:46;;;;;;;2.28;1.40;;;;;;;11.29;53.20;98396.56;5109441;28;20055;-70
2023/12/25 08:00:14;;;;;;;1.90;1.10;;;;;;;11.34;52.71;98401.53;5109170;28;20052;-69
2023/12/25 08:02:41;;;;;;;1.70;1.08;;;;;;;11.33;51.97;98405.13;5109409;28;20192;-70
2023/12/25 08:05:07;;;;;;;2.28;1.30;;;;;;;11.19;52.12;98383.13;5109439;28;20054;-70
2023/12/25 08:07:34;;;;;;;3.90;1.45;;;;;;;11.39;51.51;98402.88;5109344;28;20073;-69
2023/12/25 08:10:02;;;;;;;1.88;1.20;;;;;;;10.77;51.29;98290.78;5109056;28;20115;-70
2023/12/25 08:12:29;;;;;;;2.83;1.50;;;;;;;10.19;51.19;98204.91;5109107;28;20316;-69
2023/12/25 08:14:56;;;;;;;1.60;1.20;;;;;;;11.49;50.50;98425.13;5109243;28;20044;-70
2023/12/25 08:17:23;;;;;;;2.00;1.40;;;;;;;10.52;51.34;98266.06;5109197;28;20051;-70
2023/12/25 08:19:49;;;;;;;1.88;1.30;;;;;;;11.17;50.91;98387.69;5108907;28;20044;-69
2023/12/25 08:22:16;;;;;;;2.35;1.30;;;;;;;11.53;50.17;98452.28;5109353;28;20157;-70
2023/12/25 08:24:43;;;;;;;2.08;1.30;;;;;;;11.52;50.16;98438.16;5108727;28;20097;-70
2023/12/25 08:27:12;;;;;;;2.40;1.40;;;;;;;11.58;50.34;98447.50;5108905;28;20051;-70
2023/12/25 08:29:38;;;;;;;2.28;1.38;;;;;;;11.57;50.67;98451.94;5108877;28;20090;-70
2023/12/25 08:32:06;;;;;;;1.90;1.33;;;;;;;11.58;50.73;98458.09;5142056;27;20130;-70
2023/12/25 08:34:36;;;;;;;2.85;1.42;;;;;;;11.51;50.08;98438.28;5108800;28;20050;-70
2023/12/25 08:37:03;;;;;;;2.13;1.52;;;;;;;11.66;50.73;98454.88;5108758;28;20059;-71
2023/12/25 08:39:31;;;;;;;2.50;1.48;;;;;;;11.64;50.54;98464.75;5107773;28;20044;-70
2023/12/25 08:42:00;;;;;;;1.58;1.17;;;;;;;11.61;50.58;98481.75;5108297;28;20292;-70
2023/12/25 08:44:28;;;;;;;2.20;1.40;;;;;;;11.68;50.22;98506.03;5108368;28;20051;-71
2023/12/25 08:46:55;;;;;;;1.98;1.27;;;;;;;11.72;50.11;98465.06;5108834;28;20140;-70
2023/12/25 08:49:22;;;;;;;2.10;1.30;;;;;;;11.54;50.15;98446.88;5108153;28;20319;-70
2023/12/25 08:51:48;;;;;;;1.98;1.33;;;;;;;11.72;49.96;98484.47;5108363;28;20044;-70
2023/12/25 08:54:15;;;;;;;2.42;1.52;;;;;;;11.57;50.30;98465.22;5108199;28;20145;-71
2023/12/25 08:56:42;;;;;;;2.90;1.80;;;;;;;11.75;49.69;98512.59;5108843;28;20235;-70
2023/12/25 08:59:09;;;;;;;3.08;1.73;;;;;;;11.72;50.15;98494.25;5108597;28;20052;-70
2023/12/25 09:01:37;;;;;;;2.63;1.60;;;;;;;11.73;50.02;98490.63;5107986;28;20044;-70
2023/12/25 09:04:03;;;;;;;3.28;1.60;;;;;;;11.75;49.59;98494.88;5109005;28;20142;-70
2023/12/25 09:06:30;;;;;;;2.60;1.60;;;;;;;11.73;49.69;98507.41;5108516;28;20044;-70
2023/12/25 09:08:57;;;;;;;2.40;1.50;;;;;;;11.76;49.59;98501.03;5108093;28;20165;-70
2023/12/25 09:11:23;;;;;;;2.65;1.50;;;;;;;11.77;48.99;98498.25;5107797;28;20043;-70
2023/12/25 09:13:50;;;;;;;2.13;1.30;;;;;;;11.75;49.52;98488.72;5108326;28;20044;-70
2023/12/25 09:16:17;;;;;;;2.65;1.30;;;;;;;11.78;49.27;98485.84;5107562;28;20104;-70
2023/12/25 09:18:45;;;;;;;2.85;1.30;;;;;;;11.76;49.20;98499.22;5107385;28;20051;-70
2023/12/25 09:21:12;;;;;;;2.15;1.40;;;;;;;11.73;49.32;98502.09;5107837;28;20051;-70
2023/12/25 09:23:40;;;;;;;3.58;1.50;;;;;;;11.80;49.33;98503.34;5108120;28;20040;-70
2023/12/25 09:26:06;;;;;;;2.88;1.60;;;;;;;11.80;49.62;98513.97;5107804;28;20040;-70
2023/12/25 09:28:33;;;;;;;2.22;1.40;;;;;;;11.63;49.77;98476.34;5107976;28;20097;-70
2023/12/25 09:31:00;;;;;;;2.00;1.30;;;;;;;11.77;49.95;98522.16;5107400;28;20091;-70
2023/12/25 09:33:26;;;;;;;2.30;1.60;;;;;;;11.66;50.17;98497.34;5107968;28;20089;-69
2023/12/25 09:35:54;;;;;;;2.35;1.40;;;;;;;11.85;50.89;98519.78;5107041;28;20109;-70
2023/12/25 09:38:21;;;;;;;2.05;1.35;;;;;;;11.84;50.99;98530.50;5107887;28;20036;-70
2023/12/25 09:40:48;;;;;;;1.90;1.40;;;;;;;11.84;50.97;98512.78;5107282;28;20311;-70
2023/12/25 09:43:15;;;;;;;1.95;1.27;;;;;;;11.83;51.58;98516.38;5107218;28;20124;-70
2023/12/25 09:45:43;;;;;;;1.67;1.30;;;;;;;11.45;52.41;98467.91;5107352;28;20173;-69
2023/12/25 09:48:10;;;;;;;2.42;1.30;;;;;;;11.86;52.90;98555.13;5107000;28;20077;-70
2023/12/25 09:50:39;;;;;;;1.50;1.10;;;;;;;11.85;53.46;98518.94;5105940;28;20084;-69
2023/12/25 09:53:07;;;;;;;3.33;1.80;;;;;;;11.87;53.10;98554.19;5107217;28;20051;-69
2023/12/25 09:55:34;;;;;;;2.22;1.50;;;;;;;11.89;52.60;98529.22;5106931;28;20101;-70
2023/12/25 09:58:05;;;;;;;2.72;1.40;;;;;;;11.91;52.32;98555.66;5107114;28;20043;-70
2023/12/25 10:00:32;;;;;;;2.28;1.20;;;;;;;11.87;52.04;98557.69;5107353;28;20044;-70
2023/12/25 10:02:59;;;;;;;3.80;1.88;;;;;;;11.88;52.35;98550.56;5107031;28;20070;-70
2023/12/25 10:05:25;;;;;;;3.13;2.05;;;;;;;11.89;51.69;98531.03;5107018;28;20304;-70
2023/12/25 10:07:52;;;;;;;2.38;1.50;;;;;;;11.88;51.71;98542.59;5106785;28;20078;-70
2023/12/25 10:10:25;;;;;;;2.90;1.30;;;;;;;11.67;51.64;98505.19;5106594;28;20056;-70
2023/12/25 10:12:52;;;;;;;2.10;1.40;;;;;;;11.86;51.88;98540.06;5106878;28;20187;-70
2023/12/25 10:15:18;;;;;;;3.08;1.38;;;;;;;11.88;51.77;98530.19;5106984;28;20044;-70
2023/12/25 10:17:45;;;;;;;2.85;1.42;;;;;;;11.87;51.84;98522.31;5106745;28;20043;-70
2023/12/25 10:20:19;;;;;;;3.40;1.40;;;;;;;11.52;51.95;98496.53;5106776;28;20051;-70
2023/12/25 10:22:46;;;;;;;2.45;1.40;;;;;;;11.95;51.72;98524.41;5106879;28;20040;-70
2023/12/25 10:25:13;;;;;;;2.22;1.40;;;;;;;11.94;51.72;98538.66;5106456;28;20044;-70
2023/12/25 10:27:43;;;;;;;2.40;1.55;;;;;;;11.92;52.21;98529.94;5105626;28;20036;-70
2023/12/25 10:30:16;;;;;;;2.65;1.30;;;;;;;11.93;52.37;98572.31;5106623;28;20096;-70
2023/12/25 10:32:43;;;;;;;3.25;1.50;;;;;;;11.91;52.79;98554.81;5106534;28;20059;-69
2023/12/25 10:35:11;;;;;;;2.65;1.20;;;;;;;11.91;53.14;98542.38;5106279;28;20197;-70
2023/12/25 10:37:39;;;;;;;2.70;1.48;;;;;;;11.88;53.33;98554.06;5106125;28;20044;-70
2023/12/25 10:40:27;;;;;;;1.77;1.17;;;;;;;11.90;53.52;98540.69;5106440;28;20072;-70
2023/12/25 10:42:56;;;;;;;2.75;1.75;;;;;;;11.26;53.49;98415.34;5101793;28;20047;-70
2023/12/25 10:45:25;;;;;;;1.77;1.20;;;;;;;11.91;53.87;98534.41;5106337;28;20048;-70
2023/12/25 10:47:53;;;;;;;1.90;1.20;;;;;;;11.94;54.18;98509.44;5106642;28;20040;-69
2023/12/25 10:50:21;;;;;;;1.92;1.30;;;;;;;11.86;54.03;98507.34;5106288;28;20055;-70
2023/12/25 10:52:49;;;;;;;2.22;1.38;;;;;;;12.01;54.14;98534.63;5105997;28;20089;-70
2023/12/25 10:55:23;;;;;;;2.05;1.30;;;;;;;12.01;54.21;98535.47;5106532;28;20040;-70
2023/12/25 10:57:51;;;;;;;2.40;1.40;;;;;;;12.02;53.65;98541.63;5105876;28;20047;-70
2023/12/25 11:00:21;;;;;;;1.95;1.35;;;;;;;11.97;53.38;98533.97;5106413;28;20040;-70
2023/12/25 11:02:52;;;;;;;2.03;1.30;;;;;;;12.01;53.29;98539.94;5105659;28;20040;-70
2023/12/25 11:05:19;;;;;;;1.90;1.27;;;;;;;11.86;53.26;98513.50;5106063;28;20097;-70
2023/12/25 11:07:47;;;;;;;3.13;1.45;;;;;;;12.05;52.71;98528.13;5105730;28;20040;-69
2023/12/25 11:10:14;;;;;;;2.30;1.40;;;;;;;12.04;52.81;98529.06;5105507;28;20075;-70
2023/12/25 11:12:44;;;;;;;2.40;1.35;;;;;;;11.91;52.56;98467.19;5105765;28;20048;-70
2023/12/25 11:15:11;;;;;;;3.47;1.48;;;;;;;12.02;51.85;98533.66;5105948;28;20211;-70
2023/12/25 11:17:39;;;;;;;3.67;1.40;;;;;;;12.07;51.89;98518.22;5105826;28;20103;-70
2023/12/25 11:20:11;;;;;;;2.00;1.27;;;;;;;11.59;51.60;98451.84;5105954;28;20063;-70
2023/12/25 11:22:40;;;;;;;2.60;1.23;;;;;;;12.07;51.96;98532.34;5105637;28;20304;-70
2023/12/25 11:25:13;;;;;;;2.22;1.30;;;;;;;12.10;52.02;98523.31;5105714;28;20055;-71
2023/12/25 11:27:41;;;;;;;2.17;1.50;;;;;;;12.09;51.94;98511.00;5105885;28;20181;-70
2023/12/25 11:30:10;;;;;;;2.55;1.40;;;;;;;12.11;52.24;98525.84;5105235;28;20226;-70
2023/12/25 11:32:40;;;;;;;2.30;1.60;;;;;;;12.12;51.94;98511.59;5105730;28;20096;-70
2023/12/25 11:35:09;;;;;;;7.30;5.00;;;;;;;12.13;51.61;98509.81;5105758;28;20120;-70